Time;durP1;ratioP1;P1;durP2;ratioP2;P2;SDS_P1;SDS_P2;PMS_P1;PMS_P2;Temp;Humidity;BMP_temperature;BMP_pressure;BME280_temperature;BME280_humidity;BME280_pressure;Samples;Min_cycle;Max_cycle;Signal;HPM_P1;HPM_P2
2023/06/16 00:01:42;;;;;;;;;;;18.30;62.80;;;;;;5037435;28;19925;-41
2023/06/16 00:04:09;;;;;;;;;;;18.20;62.80;;;;;;5064689;28;20012;-40
2023/06/16 00:06:36;;;;;;;;;;;18.20;63.90;;;;;;5053060;28;19986;-40
2023/06/16 00:09:02;;;;;;;;;;;18.10;63.30;;;;;;5069705;28;20013;-40
2023/06/16 00:11:29;;;;;;;;;;;18.10;63.30;;;;;;5071430;28;19971;-40
2023/06/16 00:13:56;;;;;;;;;;;18.10;63.40;;;;;;5056028;28;19928;-39
2023/06/16 00:16:26;;;;;;;;;;;18.00;63.90;;;;;;5051436;28;19978;-41
2023/06/16 00:18:53;;;;;;;;;;;17.90;64.20;;;;;;5065307;28;19925;-41
2023/06/16 00:21:23;;;;;;;;;;;17.80;64.30;;;;;;5049084;28;20008;-41
2023/06/16 00:23:50;;;;;;;;;;;17.80;64.30;;;;;;5067626;28;19932;-40
2023/06/16 00:26:17;;;;;;;;;;;17.80;64.20;;;;;;5053220;28;19963;-40
2023/06/16 00:28:43;;;;;;;;;;;17.70;64.30;;;;;;5076468;28;20293;-39
2023/06/16 00:31:10;;;;;;;;;;;17.70;64.60;;;;;;5078012;28;20393;-41
2023/06/16 00:33:38;;;;;;;;;;;17.70;64.90;;;;;;5056236;28;19982;-38
2023/06/16 00:36:04;;;;;;;;;;;17.60;65.00;;;;;;5070853;28;20015;-41
2023/06/16 00:38:31;;;;;;;;;;;17.60;65.00;;;;;;5054897;28;19928;-40
2023/06/16 00:40:58;;;;;;;;;;;17.60;65.70;;;;;;5070352;28;19928;-41
2023/06/16 00:43:24;;;;;;;;;;;17.50;66.30;;;;;;5074744;28;20374;-40
2023/06/16 00:45:51;;;;;;;;;;;17.50;65.70;;;;;;5064965;28;19925;-41
2023/06/16 00:48:18;;;;;;;;;;;17.40;65.30;;;;;;5054740;28;19928;-41
2023/06/16 00:50:45;;;;;;;;;;;17.40;66.50;;;;;;5070082;28;19924;-41
2023/06/16 00:53:12;;;;;;;;;;;17.40;66.40;;;;;;5058737;28;20040;-40
2023/06/16 00:55:39;;;;;;;;;;;17.40;66.20;;;;;;5045637;28;20426;-41
2023/06/16 00:58:06;;;;;;;;;;;17.30;66.20;;;;;;5062704;28;19925;-40
2023/06/16 01:00:35;;;;;;;;;;;17.30;66.20;;;;;;5073424;28;19932;-40
2023/06/16 01:03:02;;;;;;;;;;;17.30;66.70;;;;;;5074484;28;20320;-37
2023/06/16 01:05:29;;;;;;;;;;;17.20;67.30;;;;;;5054842;28;20022;-40
2023/06/16 01:08:00;;;;;;;;;;;17.20;67.70;;;;;;5073199;28;19928;-40
2023/06/16 01:10:29;;;;;;;;;;;17.20;68.00;;;;;;5047723;28;19928;-40
2023/06/16 01:12:56;;;;;;;;;;;17.10;68.10;;;;;;5082864;28;19928;-41
2023/06/16 01:15:23;;;;;;;;;;;17.10;68.50;;;;;;5050572;28;20016;-40
2023/06/16 01:17:50;;;;;;;;;;;17.00;68.30;;;;;;5073757;28;20413;-40
2023/06/16 01:20:19;;;;;;;;;;;17.10;68.20;;;;;;5073791;28;19925;-40
2023/06/16 01:22:56;;;;;;;;;;;17.00;67.90;;;;;;5072163;28;19972;-40
2023/06/16 01:25:24;;;;;;;;;;;17.00;68.70;;;;;;5054531;28;20015;-40
2023/06/16 01:27:52;;;;;;;;;;;17.00;68.90;;;;;;5069250;28;19957;-39
2023/06/16 01:30:19;;;;;;;;;;;17.00;69.10;;;;;;5086729;28;19973;-41
2023/06/16 01:32:46;;;;;;;;;;;17.00;69.30;;;;;;5064938;28;19925;-41
2023/06/16 01:35:13;;;;;;;;;;;17.00;69.40;;;;;;5072879;28;20007;-37
2023/06/16 01:37:39;;;;;;;;;;;16.90;69.40;;;;;;5084983;28;19924;-41
2023/06/16 01:40:08;;;;;;;;;;;17.00;70.30;;;;;;5052559;28;21560;-40
2023/06/16 01:42:36;;;;;;;;;;;16.90;69.40;;;;;;5068942;28;19975;-40
2023/06/16 01:45:03;;;;;;;;;;;16.90;69.80;;;;;;5054966;28;19978;-40
2023/06/16 01:47:30;;;;;;;;;;;16.90;70.80;;;;;;5055414;28;19977;-40
2023/06/16 01:49:56;;;;;;;;;;;16.80;70.50;;;;;;5063736;28;20063;-40
2023/06/16 01:52:23;;;;;;;;;;;16.80;70.50;;;;;;5048349;28;19924;-41
2023/06/16 01:54:50;;;;;;;;;;;16.80;71.00;;;;;;5069046;28;20345;-40
2023/06/16 01:57:16;;;;;;;;;;;16.80;71.00;;;;;;5072309;28;19947;-39
2023/06/16 01:59:45;;;;;;;;;;;16.80;71.30;;;;;;5072893;28;19924;-40
2023/06/16 02:02:13;;;;;;;;;;;16.80;70.50;;;;;;5054541;28;19925;-38
2023/06/16 02:04:40;;;;;;;;;;;16.70;70.60;;;;;;5072267;28;20007;-40
2023/06/16 02:07:07;;;;;;;;;;;16.70;71.30;;;;;;5055454;28;20395;-40
2023/06/16 02:09:35;;;;;;;;;;;16.70;70.60;;;;;;5062729;28;20293;-40
2023/06/16 02:12:02;;;;;;;;;;;16.70;70.50;;;;;;5064738;28;19978;-36
2023/06/16 02:14:28;;;;;;;;;;;16.70;70.80;;;;;;5077205;28;19982;-40
2023/06/16 02:16:56;;;;;;;;;;;16.70;71.00;;;;;;5076535;28;19971;-39
2023/06/16 02:19:23;;;;;;;;;;;16.70;71.30;;;;;;5074123;28;19974;-40
2023/06/16 02:21:50;;;;;;;;;;;16.70;71.00;;;;;;5068181;28;19932;-39
2023/06/16 02:24:16;;;;;;;;;;;16.60;70.80;;;;;;5054032;28;20007;-39
2023/06/16 02:26:43;;;;;;;;;;;16.60;71.20;;;;;;5054300;28;19924;-40
2023/06/16 02:29:10;;;;;;;;;;;16.60;71.10;;;;;;5070111;28;19959;-39
2023/06/16 02:31:37;;;;;;;;;;;16.60;71.70;;;;;;5068389;28;19972;-40
2023/06/16 02:34:05;;;;;;;;;;;16.60;71.10;;;;;;5066949;28;20388;-40
2023/06/16 02:36:33;;;;;;;;;;;16.60;71.80;;;;;;5071493;28;19929;-40
2023/06/16 02:38:59;;;;;;;;;;;16.60;72.20;;;;;;5071283;28;19924;-38
2023/06/16 02:41:26;;;;;;;;;;;16.60;71.90;;;;;;5052157;28;19930;-38
2023/06/16 02:43:52;;;;;;;;;;;16.60;72.00;;;;;;5049968;28;19928;-39
2023/06/16 02:46:19;;;;;;;;;;;16.60;72.10;;;;;;5042095;28;20021;-40
2023/06/16 02:48:46;;;;;;;;;;;16.60;72.40;;;;;;5061252;28;20015;-39
2023/06/16 02:51:14;;;;;;;;;;;16.50;72.20;;;;;;5067347;28;19982;-37
2023/06/16 02:53:41;;;;;;;;;;;16.50;72.70;;;;;;5051661;28;20400;-40
2023/06/16 02:56:08;;;;;;;;;;;16.50;73.20;;;;;;5078089;28;20330;-40
2023/06/16 02:58:34;;;;;;;;;;;16.50;72.70;;;;;;5066621;28;19990;-40
2023/06/16 03:01:01;;;;;;;;;;;16.50;73.20;;;;;;5053362;28;20379;-40
2023/06/16 03:03:30;;;;;;;;;;;16.50;73.70;;;;;;5053231;28;20372;-40
2023/06/16 03:05:58;;;;;;;;;;;16.40;74.10;;;;;;5055160;28;19971;-39
2023/06/16 03:08:27;;;;;;;;;;;16.40;73.30;;;;;;5052732;28;20069;-38
2023/06/16 03:10:53;;;;;;;;;;;16.40;74.90;;;;;;5076434;28;19924;-40
2023/06/16 03:13:20;;;;;;;;;;;16.30;73.80;;;;;;5039567;28;19925;-39
2023/06/16 03:15:47;;;;;;;;;;;16.30;73.60;;;;;;5056050;28;19931;-40
2023/06/16 03:18:13;;;;;;;;;;;16.30;73.60;;;;;;5072292;28;19967;-36
2023/06/16 03:20:40;;;;;;;;;;;16.30;73.70;;;;;;5052539;28;20380;-40
2023/06/16 03:23:07;;;;;;;;;;;16.30;74.10;;;;;;5061255;28;19971;-40
2023/06/16 03:25:35;;;;;;;;;;;16.30;73.80;;;;;;5061637;28;19928;-40
2023/06/16 03:28:01;;;;;;;;;;;16.30;74.30;;;;;;5074711;28;20027;-37
2023/06/16 03:30:28;;;;;;;;;;;16.30;74.60;;;;;;5056518;28;19950;-39
2023/06/16 03:32:55;;;;;;;;;;;16.30;74.70;;;;;;5069432;28;19985;-40
2023/06/16 03:35:21;;;;;;;;;;;16.30;74.50;;;;;;5070974;28;20295;-40
2023/06/16 03:37:48;;;;;;;;;;;16.30;75.00;;;;;;5068257;28;19925;-39
2023/06/16 03:40:17;;;;;;;;;;;16.20;75.40;;;;;;5063015;28;19971;-39
2023/06/16 03:42:45;;;;;;;;;;;16.20;74.80;;;;;;5036102;28;20414;-39
2023/06/16 03:45:11;;;;;;;;;;;16.20;74.50;;;;;;5042775;28;20009;-38
2023/06/16 03:47:38;;;;;;;;;;;16.20;74.40;;;;;;5058450;28;19924;-39
2023/06/16 03:50:05;;;;;;;;;;;16.20;74.90;;;;;;5070036;28;20280;-40
2023/06/16 03:52:32;;;;;;;;;;;16.20;75.50;;;;;;5069768;28;19928;-40
2023/06/16 03:54:58;;;;;;;;;;;16.20;75.30;;;;;;5053401;28;19924;-40
2023/06/16 03:57:25;;;;;;;;;;;16.20;75.60;;;;;;5072110;28;20483;-39
2023/06/16 03:59:53;;;;;;;;;;;16.20;76.00;;;;;;5074722;28;20017;-35
2023/06/16 04:02:20;;;;;;;;;;;16.20;76.10;;;;;;5035861;28;20033;-39
2023/06/16 04:04:47;;;;;;;;;;;16.20;76.60;;;;;;5060338;28;20412;-41
2023/06/16 04:07:14;;;;;;;;;;;16.10;76.20;;;;;;5072873;28;19950;-37
2023/06/16 04:09:40;;;;;;;;;;;16.10;76.00;;;;;;5073789;28;19975;-38
2023/06/16 04:12:07;;;;;;;;;;;16.10;76.10;;;;;;5072751;28;19924;-39
2023/06/16 04:14:34;;;;;;;;;;;16.10;76.50;;;;;;5056125;28;19929;-40
2023/06/16 04:17:02;;;;;;;;;;;16.10;76.80;;;;;;5074380;28;19924;-39
2023/06/16 04:19:29;;;;;;;;;;;16.10;76.70;;;;;;5050692;28;19980;-35
2023/06/16 04:21:57;;;;;;;;;;;16.10;76.70;;;;;;5055664;28;20351;-40
2023/06/16 04:24:24;;;;;;;;;;;16.10;77.30;;;;;;5087399;28;20313;-39
2023/06/16 04:26:52;;;;;;;;;;;16.10;77.00;;;;;;5074410;28;19964;-40
2023/06/16 04:29:20;;;;;;;;;;;16.00;76.90;;;;;;5071772;28;20364;-40
2023/06/16 04:31:48;;;;;;;;;;;16.10;77.90;;;;;;5074186;28;20226;-40
2023/06/16 04:34:16;;;;;;;;;;;16.00;78.00;;;;;;5050935;28;19925;-40
2023/06/16 04:36:44;;;;;;;;;;;16.10;77.40;;;;;;5073474;28;20366;-39
2023/06/16 04:39:10;;;;;;;;;;;16.00;78.00;;;;;;5075569;28;19928;-39
2023/06/16 04:41:37;;;;;;;;;;;16.10;77.30;;;;;;5055583;28;19970;-39
2023/06/16 04:44:04;;;;;;;;;;;16.10;77.80;;;;;;5073721;28;19971;-40
2023/06/16 04:46:31;;;;;;;;;;;16.10;78.90;;;;;;5052746;28;19967;-40
2023/06/16 04:48:57;;;;;;;;;;;16.10;78.60;;;;;;5055915;28;19925;-40
2023/06/16 04:51:26;;;;;;;;;;;16.10;79.40;;;;;;5066737;28;20398;-40
2023/06/16 04:53:53;;;;;;;;;;;16.10;80.80;;;;;;5050017;28;19925;-39
2023/06/16 04:56:19;;;;;;;;;;;16.00;79.90;;;;;;5056757;28;19973;-40
2023/06/16 04:58:46;;;;;;;;;;;16.10;81.20;;;;;;5055548;28;19947;-40
2023/06/16 05:01:13;;;;;;;;;;;16.10;81.30;;;;;;5071661;28;19959;-38
2023/06/16 05:03:39;;;;;;;;;;;16.10;81.40;;;;;;5054542;28;19924;-38
2023/06/16 05:06:06;;;;;;;;;;;16.20;81.00;;;;;;5058517;28;19978;-41
2023/06/16 05:08:34;;;;;;;;;;;16.20;82.40;;;;;;5075590;28;19971;-39
2023/06/16 05:11:01;;;;;;;;;;;16.20;81.30;;;;;;5048939;28;20026;-39
2023/06/16 05:13:28;;;;;;;;;;;16.20;81.20;;;;;;5053367;28;19970;-40
2023/06/16 05:15:55;;;;;;;;;;;16.30;81.30;;;;;;5066024;28;20011;-39
2023/06/16 05:18:21;;;;;;;;;;;16.40;82.40;;;;;;5057851;28;19983;-39
2023/06/16 05:20:48;;;;;;;;;;;16.40;81.40;;;;;;5086898;28;19925;-39
2023/06/16 05:23:15;;;;;;;;;;;16.50;81.40;;;;;;5072164;28;20414;-40
2023/06/16 05:25:43;;;;;;;;;;;16.60;81.70;;;;;;5078136;28;19963;-40
2023/06/16 05:28:09;;;;;;;;;;;16.70;82.30;;;;;;5086689;28;20005;-39
2023/06/16 05:30:36;;;;;;;;;;;16.70;82.90;;;;;;5084292;28;19933;-39
2023/06/16 05:33:03;;;;;;;;;;;16.80;83.20;;;;;;5071911;28;19932;-40
2023/06/16 05:35:29;;;;;;;;;;;16.90;83.30;;;;;;5055643;28;20255;-40
2023/06/16 05:37:56;;;;;;;;;;;17.00;84.60;;;;;;5074867;28;19924;-40
2023/06/16 05:40:22;;;;;;;;;;;17.10;83.60;;;;;;5056282;28;20441;-40
2023/06/16 05:42:50;;;;;;;;;;;17.20;84.30;;;;;;5070590;28;19989;-40
2023/06/16 05:45:17;;;;;;;;;;;17.30;83.40;;;;;;5050439;28;19990;-39
2023/06/16 05:47:44;;;;;;;;;;;17.40;82.80;;;;;;5053256;28;20431;-38
2023/06/16 05:50:10;;;;;;;;;;;17.50;83.30;;;;;;5053356;28;19925;-39
2023/06/16 05:52:37;;;;;;;;;;;17.60;84.30;;;;;;5068620;28;19924;-37
2023/06/16 05:55:04;;;;;;;;;;;17.70;84.10;;;;;;5069504;28;19976;-39
2023/06/16 05:57:31;;;;;;;;;;;17.80;85.70;;;;;;5069283;28;20019;-37
2023/06/16 05:59:59;;;;;;;;;;;17.90;84.00;;;;;;5052191;28;20008;-39
2023/06/16 06:02:26;;;;;;;;;;;18.10;84.10;;;;;;5069337;28;19932;-36
2023/06/16 06:04:52;;;;;;;;;;;18.30;85.20;;;;;;5050756;28;19986;-40
2023/06/16 06:07:19;;;;;;;;;;;18.40;86.20;;;;;;5070359;28;19986;-36
2023/06/16 06:09:46;;;;;;;;;;;18.50;84.20;;;;;;5049201;28;20032;-40
2023/06/16 06:12:12;;;;;;;;;;;18.70;86.60;;;;;;5070450;28;19986;-38
2023/06/16 06:14:39;;;;;;;;;;;18.80;85.20;;;;;;5051443;28;20024;-39
2023/06/16 06:17:08;;;;;;;;;;;19.00;84.90;;;;;;5057381;28;20039;-40
2023/06/16 06:19:35;;;;;;;;;;;19.10;84.80;;;;;;5071664;28;20015;-39
2023/06/16 06:22:02;;;;;;;;;;;19.30;85.30;;;;;;5065476;28;20417;-38
2023/06/16 06:24:28;;;;;;;;;;;19.50;84.30;;;;;;5056396;28;20380;-38
2023/06/16 06:26:57;;;;;;;;;;;19.60;85.10;;;;;;5082258;28;20388;-40
2023/06/16 06:29:23;;;;;;;;;;;19.80;83.70;;;;;;5052803;28;20391;-40
2023/06/16 06:31:50;;;;;;;;;;;19.90;83.40;;;;;;5049475;28;19924;-40
2023/06/16 06:34:18;;;;;;;;;;;20.00;82.50;;;;;;5070197;28;20019;-41
2023/06/16 06:36:45;;;;;;;;;;;20.20;82.90;;;;;;5052308;28;20025;-40
2023/06/16 06:39:11;;;;;;;;;;;20.30;81.60;;;;;;5071626;28;19929;-41
2023/06/16 06:41:40;;;;;;;;;;;20.50;81.80;;;;;;5069722;28;20005;-41
2023/06/16 06:44:06;;;;;;;;;;;20.60;80.80;;;;;;5051269;28;19932;-41
2023/06/16 06:46:33;;;;;;;;;;;20.70;80.70;;;;;;5050085;28;19989;-42
2023/06/16 06:49:00;;;;;;;;;;;20.90;80.80;;;;;;5069755;28;20363;-40
2023/06/16 06:51:28;;;;;;;;;;;21.00;79.90;;;;;;5046934;28;20011;-39
2023/06/16 06:53:55;;;;;;;;;;;21.20;78.80;;;;;;5068965;28;20019;-41
2023/06/16 06:56:22;;;;;;;;;;;21.30;78.50;;;;;;5070268;28;19974;-41
2023/06/16 06:58:49;;;;;;;;;;;21.50;77.40;;;;;;5069720;28;19924;-37
2023/06/16 07:01:16;;;;;;;;;;;21.50;76.30;;;;;;5068879;28;20364;-39
2023/06/16 07:03:42;;;;;;;;;;;21.70;76.40;;;;;;5052003;28;20001;-35
2023/06/16 07:06:10;;;;;;;;;;;21.80;75.80;;;;;;5069863;28;19974;-38
2023/06/16 07:08:37;;;;;;;;;;;22.00;75.40;;;;;;5050534;28;20387;-39
2023/06/16 07:11:04;;;;;;;;;;;22.10;74.90;;;;;;5064898;28;20019;-40
2023/06/16 07:13:31;;;;;;;;;;;22.30;74.50;;;;;;5070947;28;20253;-40
2023/06/16 07:15:58;;;;;;;;;;;22.50;74.40;;;;;;5069648;28;20019;-39
2023/06/16 07:18:25;;;;;;;;;;;22.70;73.90;;;;;;5070348;28;19924;-36
2023/06/16 07:20:51;;;;;;;;;;;22.80;73.40;;;;;;5051252;28;20058;-40
2023/06/16 07:23:18;;;;;;;;;;;22.90;72.90;;;;;;5051075;28;19936;-40
2023/06/16 07:25:46;;;;;;;;;;;23.10;72.90;;;;;;5051779;28;20446;-42
2023/06/16 07:28:13;;;;;;;;;;;23.20;72.80;;;;;;5077337;28;19968;-40
2023/06/16 07:30:39;;;;;;;;;;;23.30;72.60;;;;;;5068762;28;19970;-40
2023/06/16 07:33:07;;;;;;;;;;;23.50;72.00;;;;;;5058651;28;19982;-35
2023/06/16 07:35:34;;;;;;;;;;;23.50;72.00;;;;;;5044019;28;19933;-41
2023/06/16 07:38:01;;;;;;;;;;;23.60;71.70;;;;;;5065333;28;19931;-40
2023/06/16 07:40:27;;;;;;;;;;;23.80;71.80;;;;;;5067216;28;19978;-41
2023/06/16 07:42:55;;;;;;;;;;;24.00;71.30;;;;;;5068461;28;19928;-41
2023/06/16 07:45:22;;;;;;;;;;;24.10;70.90;;;;;;5049974;28;19924;-41
2023/06/16 07:47:49;;;;;;;;;;;24.20;70.90;;;;;;5065764;28;19936;-37
2023/06/16 07:50:16;;;;;;;;;;;24.30;70.20;;;;;;5060445;28;19985;-40
2023/06/16 07:52:42;;;;;;;;;;;24.50;69.40;;;;;;5037826;28;19924;-41
2023/06/16 07:55:09;;;;;;;;;;;24.50;69.00;;;;;;5072477;28;19924;-42
2023/06/16 07:57:38;;;;;;;;;;;24.60;68.90;;;;;;5065525;28;19970;-39
2023/06/16 08:00:11;;;;;;;;;;;24.70;68.40;;;;;;5062212;28;19928;-41
2023/06/16 08:02:38;;;;;;;;;;;24.80;68.80;;;;;;5067396;28;19931;-39
2023/06/16 08:05:05;;;;;;;;;;;25.00;68.70;;;;;;5032726;28;19978;-41
2023/06/16 08:07:31;;;;;;;;;;;25.20;68.60;;;;;;5051858;28;19932;-42
2023/06/16 08:09:58;;;;;;;;;;;25.40;68.70;;;;;;5065541;28;19925;-42
2023/06/16 08:12:25;;;;;;;;;;;25.40;67.80;;;;;;5049204;28;20034;-40
2023/06/16 08:14:51;;;;;;;;;;;25.50;68.60;;;;;;5065579;28;19982;-40
2023/06/16 08:17:20;;;;;;;;;;;25.70;66.20;;;;;;5042628;28;19978;-41
2023/06/16 08:19:46;;;;;;;;;;;25.90;67.00;;;;;;5048025;28;19928;-41
2023/06/16 08:22:13;;;;;;;;;;;26.00;66.40;;;;;;5037288;28;19925;-36
2023/06/16 08:24:40;;;;;;;;;;;26.10;66.50;;;;;;5059605;28;19924;-40
2023/06/16 08:27:07;;;;;;;;;;;26.20;66.00;;;;;;5049885;28;20341;-41
2023/06/16 08:29:34;;;;;;;;;;;26.20;65.90;;;;;;5052260;28;20027;-40
2023/06/16 08:32:01;;;;;;;;;;;26.30;66.40;;;;;;5045250;28;19994;-41
2023/06/16 08:34:29;;;;;;;;;;;26.40;66.30;;;;;;5068745;28;19924;-40
2023/06/16 08:36:56;;;;;;;;;;;26.60;64.70;;;;;;5047893;28;20007;-40
2023/06/16 08:39:23;;;;;;;;;;;26.70;65.00;;;;;;5038658;28;19925;-41
2023/06/16 08:41:50;;;;;;;;;;;26.80;64.90;;;;;;5035786;28;19978;-38
2023/06/16 08:44:18;;;;;;;;;;;26.90;64.60;;;;;;5050515;28;19974;-39
2023/06/16 08:46:45;;;;;;;;;;;27.00;64.90;;;;;;5071188;28;20437;-41
2023/06/16 08:49:15;;;;;;;;;;;27.10;64.50;;;;;;5071391;28;19924;-40
2023/06/16 08:51:43;;;;;;;;;;;27.20;64.70;;;;;;5054488;28;19928;-41
2023/06/16 08:54:10;;;;;;;;;;;27.30;64.00;;;;;;5071401;28;19932;-42
2023/06/16 08:56:37;;;;;;;;;;;27.50;64.50;;;;;;5054482;28;19970;-37
2023/06/16 08:59:04;;;;;;;;;;;27.60;63.90;;;;;;5054747;28;19967;-41
2023/06/16 09:01:30;;;;;;;;;;;27.60;62.90;;;;;;5072187;28;19932;-42
2023/06/16 09:03:57;;;;;;;;;;;27.70;64.00;;;;;;5072818;28;19978;-42
2023/06/16 09:06:25;;;;;;;;;;;27.80;62.70;;;;;;5054838;28;19925;-40
2023/06/16 09:08:53;;;;;;;;;;;27.90;63.40;;;;;;5054646;28;19935;-41
2023/06/16 09:11:23;;;;;;;;;;;28.00;63.50;;;;;;5054825;28;19925;-42
2023/06/16 09:13:51;;;;;;;;;;;28.20;63.00;;;;;;5071971;28;20015;-40
2023/06/16 09:16:18;;;;;;;;;;;28.30;62.50;;;;;;5090167;28;19924;-41
2023/06/16 09:18:45;;;;;;;;;;;28.40;62.50;;;;;;5092973;28;20026;-42
2023/06/16 09:21:12;;;;;;;;;;;28.60;61.00;;;;;;5092576;28;19935;-42
2023/06/16 09:23:39;;;;;;;;;;;28.60;60.80;;;;;;5056158;28;19929;-40
2023/06/16 09:26:13;;;;;;;;;;;28.60;61.70;;;;;;5034963;28;19960;-41
2023/06/16 09:28:40;;;;;;;;;;;28.60;61.60;;;;;;5052552;28;20395;-42
2023/06/16 09:31:11;;;;;;;;;;;28.60;61.40;;;;;;5035064;28;20043;-42
2023/06/16 09:33:37;;;;;;;;;;;28.60;62.00;;;;;;5055140;28;19977;-40
2023/06/16 09:36:04;;;;;;;;;;;28.70;61.10;;;;;;5060096;28;20028;-41
2023/06/16 09:38:32;;;;;;;;;;;28.90;61.10;;;;;;5067419;28;19925;-41
2023/06/16 09:41:07;;;;;;;;;;;28.90;59.50;;;;;;5090142;28;20040;-41
2023/06/16 09:43:35;;;;;;;;;;;28.90;59.80;;;;;;5090492;28;19976;-42
2023/06/16 09:46:02;;;;;;;;;;;28.90;60.30;;;;;;5083150;28;19928;-39
2023/06/16 09:48:31;;;;;;;;;;;28.90;60.00;;;;;;5054349;28;19928;-42
2023/06/16 09:50:59;;;;;;;;;;;29.00;60.40;;;;;;5054489;28;20011;-42
2023/06/16 09:53:26;;;;;;;;;;;29.00;58.90;;;;;;5070995;28;20018;-39
2023/06/16 09:55:53;;;;;;;;;;;29.20;60.00;;;;;;5065115;28;20448;-41
2023/06/16 09:58:20;;;;;;;;;;;29.30;59.80;;;;;;5072183;28;20352;-42
2023/06/16 10:00:49;;;;;;;;;;;29.40;60.40;;;;;;5061114;28;20397;-42
2023/06/16 10:03:15;;;;;;;;;;;29.50;60.10;;;;;;5071921;28;19924;-41
2023/06/16 10:05:42;;;;;;;;;;;29.60;58.40;;;;;;5063524;28;19982;-41
2023/06/16 10:08:09;;;;;;;;;;;29.70;58.30;;;;;;5053939;28;19930;-42
2023/06/16 10:10:36;;;;;;;;;;;29.70;57.40;;;;;;5070833;28;20316;-42
2023/06/16 10:13:04;;;;;;;;;;;29.80;58.50;;;;;;5058364;28;20355;-41
2023/06/16 10:15:32;;;;;;;;;;;29.80;58.30;;;;;;5069298;28;19925;-43
2023/06/16 10:18:03;;;;;;;;;;;29.80;55.60;;;;;;5039488;28;19967;-42
2023/06/16 10:20:30;;;;;;;;;;;29.70;57.10;;;;;;5070305;28;20007;-43
2023/06/16 10:22:57;;;;;;;;;;;29.70;57.20;;;;;;5052178;28;19931;-41
2023/06/16 10:25:25;;;;;;;;;;;29.80;56.70;;;;;;5070634;28;19979;-43
2023/06/16 10:27:52;;;;;;;;;;;29.90;57.20;;;;;;5070486;28;19944;-42
2023/06/16 10:30:19;;;;;;;;;;;30.10;57.20;;;;;;5070711;28;20023;-41
2023/06/16 10:32:46;;;;;;;;;;;30.20;55.40;;;;;;5071112;28;19929;-42
2023/06/16 10:35:14;;;;;;;;;;;30.20;55.70;;;;;;5068160;28;20011;-40
2023/06/16 10:37:41;;;;;;;;;;;30.30;53.90;;;;;;5058638;28;19972;-41
2023/06/16 10:40:09;;;;;;;;;;;30.30;53.80;;;;;;5055820;28;20356;-39
2023/06/16 10:42:36;;;;;;;;;;;30.30;55.10;;;;;;5085508;28;20030;-39
2023/06/16 10:45:21;;;;;;;;;;;30.50;55.20;;;;;;5052402;28;19982;-41
2023/06/16 10:47:54;;;;;;;;;;;30.50;52.80;;;;;;5069995;28;20392;-41
2023/06/16 10:50:22;;;;;;;;;;;30.40;52.20;;;;;;5072249;28;19940;-42
2023/06/16 10:52:52;;;;;;;;;;;30.40;53.10;;;;;;5074954;28;20463;-42
2023/06/16 10:55:35;;;;;;;;;;;30.50;53.00;;;;;;5048844;28;19974;-41
2023/06/16 10:58:21;;;;;;;;;;;30.60;52.50;;;;;;5053456;28;19935;-39
2023/06/16 11:00:56;;;;;;;;;;;30.60;50.60;;;;;;5073921;28;19967;-42
2023/06/16 11:03:23;;;;;;;;;;;30.60;52.50;;;;;;5092767;28;20002;-41
2023/06/16 11:05:58;;;;;;;;;;;30.60;50.70;;;;;;5092044;28;19971;-42
2023/06/16 11:08:25;;;;;;;;;;;30.60;51.30;;;;;;5081688;28;20018;-41
2023/06/16 11:10:52;;;;;;;;;;;30.60;50.90;;;;;;5071265;28;19931;-42
2023/06/16 11:13:19;;;;;;;;;;;30.50;50.80;;;;;;5070978;28;19972;-42
2023/06/16 11:15:46;;;;;;;;;;;30.50;51.40;;;;;;5071405;28;19925;-42
2023/06/16 11:18:13;;;;;;;;;;;30.50;51.20;;;;;;5070837;28;20354;-41
2023/06/16 11:20:40;;;;;;;;;;;30.60;51.90;;;;;;5068826;28;20007;-42
2023/06/16 11:23:10;;;;;;;;;;;30.70;52.40;;;;;;5071667;28;20199;-42
2023/06/16 11:25:37;;;;;;;;;;;30.80;51.80;;;;;;5078126;28;19924;-40
2023/06/16 11:28:04;;;;;;;;;;;31.00;52.50;;;;;;5057449;28;19931;-41
2023/06/16 11:30:31;;;;;;;;;;;31.10;51.00;;;;;;5072054;28;19978;-42
2023/06/16 11:32:58;;;;;;;;;;;31.30;50.50;;;;;;5052027;28;19924;-42
2023/06/16 11:35:29;;;;;;;;;;;31.30;50.00;;;;;;5070323;28;19924;-40
2023/06/16 11:37:56;;;;;;;;;;;31.40;51.60;;;;;;5050024;28;20011;-42
2023/06/16 11:40:24;;;;;;;;;;;31.40;50.90;;;;;;5042763;28;19935;-42
2023/06/16 11:42:55;;;;;;;;;;;31.50;49.70;;;;;;5070717;28;19979;-42
2023/06/16 11:45:22;;;;;;;;;;;31.50;50.80;;;;;;5058453;28;19931;-42
2023/06/16 11:47:48;;;;;;;;;;;31.60;48.80;;;;;;5071212;28;19931;-42
2023/06/16 11:50:16;;;;;;;;;;;31.60;47.30;;;;;;5071742;28;19928;-42
2023/06/16 11:52:42;;;;;;;;;;;31.60;47.80;;;;;;5054077;28;20066;-42
2023/06/16 11:55:09;;;;;;;;;;;31.60;48.40;;;;;;5069859;28;20102;-41
2023/06/16 11:57:38;;;;;;;;;;;31.70;48.60;;;;;;5073354;28;20020;-41
2023/06/16 12:00:05;;;;;;;;;;;31.70;47.50;;;;;;5073779;28;20368;-42
2023/06/16 12:02:33;;;;;;;;;;;31.70;48.10;;;;;;5053589;28;20019;-41
2023/06/16 12:05:00;;;;;;;;;;;31.70;48.20;;;;;;5091783;28;19971;-41
2023/06/16 12:07:26;;;;;;;;;;;31.70;47.70;;;;;;5091586;28;19924;-42
2023/06/16 12:09:54;;;;;;;;;;;31.70;45.50;;;;;;5091499;28;19928;-40
2023/06/16 12:12:21;;;;;;;;;;;31.60;46.90;;;;;;5057526;28;20390;-42
2023/06/16 12:14:49;;;;;;;;;;;31.60;48.30;;;;;;5040094;28;19975;-38
2023/06/16 12:17:16;;;;;;;;;;;31.70;46.90;;;;;;5074810;28;19979;-42
2023/06/16 12:19:42;;;;;;;;;;;31.70;48.30;;;;;;5072882;28;20491;-42
2023/06/16 12:22:09;;;;;;;;;;;31.80;47.60;;;;;;5073390;28;19979;-41
2023/06/16 12:24:37;;;;;;;;;;;31.90;47.50;;;;;;5089755;28;19928;-42
2023/06/16 12:27:05;;;;;;;;;;;31.90;48.10;;;;;;5044468;28;20011;-43
2023/06/16 12:29:32;;;;;;;;;;;32.00;48.40;;;;;;5075051;28;20388;-43
2023/06/16 12:32:00;;;;;;;;;;;32.20;47.70;;;;;;5047251;28;20019;-43
2023/06/16 12:34:30;;;;;;;;;;;32.20;46.60;;;;;;5088995;28;19928;-41
2023/06/16 12:37:00;;;;;;;;;;;32.40;48.10;;;;;;5073145;28;19931;-42
2023/06/16 12:39:27;;;;;;;;;;;32.60;47.40;;;;;;5066552;28;19947;-40
2023/06/16 12:42:00;;;;;;;;;;;32.60;48.40;;;;;;5040956;28;20021;-42
2023/06/16 12:44:42;;;;;;;;;;;32.80;48.40;;;;;;5080493;28;19978;-42
2023/06/16 12:47:10;;;;;;;;;;;32.90;47.00;;;;;;5050822;28;20019;-41
2023/06/16 12:49:37;;;;;;;;;;;32.90;45.40;;;;;;5046160;28;19924;-42
2023/06/16 12:52:05;;;;;;;;;;;32.80;46.60;;;;;;5093874;28;19977;-42
2023/06/16 12:54:32;;;;;;;;;;;32.70;47.40;;;;;;5079304;28;19925;-42
2023/06/16 12:56:58;;;;;;;;;;;32.90;48.40;;;;;;5072918;28;20025;-42
2023/06/16 12:59:25;;;;;;;;;;;33.00;46.90;;;;;;5071236;28;19982;-41
2023/06/16 13:01:52;;;;;;;;;;;33.00;45.90;;;;;;5064398;28;19928;-42
2023/06/16 13:04:20;;;;;;;;;;;33.00;46.80;;;;;;5069823;28;20023;-42
2023/06/16 13:06:46;;;;;;;;;;;33.00;45.70;;;;;;5072953;28;19982;-42
2023/06/16 13:09:13;;;;;;;;;;;32.90;45.10;;;;;;5073783;28;19925;-42
2023/06/16 13:11:40;;;;;;;;;;;32.80;46.40;;;;;;5073803;28;19931;-42
2023/06/16 13:14:06;;;;;;;;;;;32.70;47.10;;;;;;5051278;28;20007;-43
2023/06/16 13:16:33;;;;;;;;;;;32.70;47.20;;;;;;5066870;28;19991;-43
2023/06/16 13:19:00;;;;;;;;;;;32.70;46.70;;;;;;5046932;28;20011;-41
2023/06/16 13:21:28;;;;;;;;;;;32.90;45.70;;;;;;5054958;28;19929;-42
2023/06/16 13:23:54;;;;;;;;;;;32.80;46.60;;;;;;5073369;28;19989;-43
2023/06/16 13:26:22;;;;;;;;;;;32.90;47.10;;;;;;5056420;28;20360;-43
2023/06/16 13:28:48;;;;;;;;;;;32.80;46.10;;;;;;5072592;28;19925;-43
2023/06/16 13:31:15;;;;;;;;;;;32.70;46.30;;;;;;5071036;28;19932;-42
2023/06/16 13:33:42;;;;;;;;;;;32.60;45.70;;;;;;5054968;28;19960;-43
2023/06/16 13:36:08;;;;;;;;;;;32.70;46.80;;;;;;5060441;28;19924;-42
2023/06/16 13:38:37;;;;;;;;;;;32.70;46.50;;;;;;5068515;28;19931;-42
2023/06/16 13:41:03;;;;;;;;;;;32.80;47.30;;;;;;5071202;28;19932;-43
2023/06/16 13:43:30;;;;;;;;;;;32.90;46.90;;;;;;5074346;28;20359;-42
2023/06/16 13:45:57;;;;;;;;;;;33.00;46.80;;;;;;5053779;28;20015;-44
2023/06/16 13:48:24;;;;;;;;;;;33.10;46.00;;;;;;5067288;28;19967;-41
2023/06/16 13:50:50;;;;;;;;;;;33.20;46.20;;;;;;5061644;28;20058;-42
2023/06/16 13:53:17;;;;;;;;;;;33.20;44.60;;;;;;5071354;28;19924;-43
2023/06/16 13:55:45;;;;;;;;;;;33.10;43.90;;;;;;5075771;28;19978;-43
2023/06/16 13:58:11;;;;;;;;;;;33.00;44.10;;;;;;5088887;28;19924;-43
2023/06/16 14:00:38;;;;;;;;;;;33.00;45.00;;;;;;5073657;28;19964;-41
2023/06/16 14:03:05;;;;;;;;;;;33.10;43.80;;;;;;5055287;28;20015;-42
2023/06/16 14:05:31;;;;;;;;;;;33.20;43.90;;;;;;5079924;28;20030;-43
2023/06/16 14:07:58;;;;;;;;;;;33.20;44.80;;;;;;5093406;28;19924;-43
2023/06/16 14:10:24;;;;;;;;;;;33.20;42.50;;;;;;5075430;28;19924;-42
2023/06/16 14:12:52;;;;;;;;;;;33.20;44.00;;;;;;5067558;28;20003;-43
2023/06/16 14:15:19;;;;;;;;;;;33.20;44.00;;;;;;5059345;28;19985;-43
2023/06/16 14:17:46;;;;;;;;;;;33.20;45.10;;;;;;5071034;28;20019;-42